Ana Sayfa
METAR-TAF:

METAR-TAF

Havaalanları :

Siem Reap Uluslararası Havalimanı

Siem Reap, Kamboçya

Enlem: 13-22N, Boylam: 103-51E, yükseklik: 15 m

Güncel hava durumu gözlemi

Rapor saat 18:30 UTC de 39 dakika önce yapıldı.
Rüzgar kuzey/kuzeybatıdan 1 kt
Sıcaklık 19°C
Nem 100%
Basınç 1011 hPa
Görüş mesafesi: 9000 m
1700 ft yükseklikte az bulutlu

METAR: VDSR 101830Z 34001KT 9000 FEW017 19/19 Q1011

Saat: 02:09 (19:09 UTC)

Tahmin

Rapor saat 17:00 UTC de 2 saat ve 9 dakika önce yapıldı.
Ayın 10'si saat 18 UTC'den ayın 11'si saat 12 UTC'ye kadar geçerli Tahmin
Rüzgar kuzey/kuzeybatıdan 9 kt
Görüş mesafesi 10 km veya daha fazla
1700 ft yükseklikte parçalı bulutlu

TAF: VDSR 101700Z 1018/1112 34009KT 9999 SCT017

4.000'den fazla havaalanı için hava durumu gözlemleri ve tahminleri (METAR ve TAF raporları).

Kullanılabilir istasyonlar harita üzerinde sarı ve kırmızı noktalarla gösterilir.

İstasyonun adını görmek için fareyi noktanın üzerinde gezdirin.

Sonrasında hava gözlem ve tahminlerini görmek için tıklayın.

Haritayı değiştirmek için: yaklaştırmak için siyah artı işaretli yeşil düğmeye ve uzaklaştırmak için de eksi işaretli düğmeye hızla tıklayın; bitişik haritalar için yeşil okları kullanın.


METAR-TAF: